sensor_id;sensor_type;location;lat;lon;timestamp;P1;durP1;ratioP1;P2;durP2;ratioP2
43487;SDS011;29078;41.932;25.554;2022-10-16T00:00:43;15.82;;;9.38;;
43487;SDS011;29078;41.932;25.554;2022-10-16T00:03:09;12.35;;;9.05;;
43487;SDS011;29078;41.932;25.554;2022-10-16T00:05:39;16.15;;;9.23;;
43487;SDS011;29078;41.932;25.554;2022-10-16T00:08:06;14.25;;;8.82;;
43487;SDS011;29078;41.932;25.554;2022-10-16T00:10:32;15.63;;;10.10;;
43487;SDS011;29078;41.932;25.554;2022-10-16T00:12:58;14.90;;;9.90;;
43487;SDS011;29078;41.932;25.554;2022-10-16T00:15:24;20.45;;;10.70;;
43487;SDS011;29078;41.932;25.554;2022-10-16T00:17:49;18.73;;;11.15;;
43487;SDS011;29078;41.932;25.554;2022-10-16T00:20:14;16.48;;;10.45;;
43487;SDS011;29078;41.932;25.554;2022-10-16T00:22:40;17.42;;;10.75;;
43487;SDS011;29078;41.932;25.554;2022-10-16T00:25:05;17.15;;;10.07;;
43487;SDS011;29078;41.932;25.554;2022-10-16T00:27:31;18.75;;;11.40;;
43487;SDS011;29078;41.932;25.554;2022-10-16T00:29:56;16.35;;;10.32;;
43487;SDS011;29078;41.932;25.554;2022-10-16T00:32:22;15.80;;;9.55;;
43487;SDS011;29078;41.932;25.554;2022-10-16T00:34:47;13.45;;;10.70;;
43487;SDS011;29078;41.932;25.554;2022-10-16T00:37:13;17.23;;;10.73;;
43487;SDS011;29078;41.932;25.554;2022-10-16T00:39:38;17.27;;;9.93;;
43487;SDS011;29078;41.932;25.554;2022-10-16T00:42:04;14.70;;;9.65;;
43487;SDS011;29078;41.932;25.554;2022-10-16T00:49:50;16.05;;;9.85;;
43487;SDS011;29078;41.932;25.554;2022-10-16T00:52:18;15.93;;;9.93;;
43487;SDS011;29078;41.932;25.554;2022-10-16T00:54:44;17.50;;;11.32;;
43487;SDS011;29078;41.932;25.554;2022-10-16T00:57:11;13.43;;;8.73;;
43487;SDS011;29078;41.932;25.554;2022-10-16T00:59:38;14.35;;;9.20;;
43487;SDS011;29078;41.932;25.554;2022-10-16T01:02:05;15.80;;;9.00;;
43487;SDS011;29078;41.932;25.554;2022-10-16T01:04:36;13.27;;;8.18;;
43487;SDS011;29078;41.932;25.554;2022-10-16T01:07:16;15.25;;;8.65;;
43487;SDS011;29078;41.932;25.554;2022-10-16T01:10:07;12.68;;;8.35;;
43487;SDS011;29078;41.932;25.554;2022-10-16T01:12:51;12.85;;;8.73;;
43487;SDS011;29078;41.932;25.554;2022-10-16T01:15:47;13.80;;;8.98;;
43487;SDS011;29078;41.932;25.554;2022-10-16T01:18:29;10.52;;;8.00;;
43487;SDS011;29078;41.932;25.554;2022-10-16T01:29:53;13.45;;;6.90;;
43487;SDS011;29078;41.932;25.554;2022-10-16T01:32:41;12.85;;;7.72;;
43487;SDS011;29078;41.932;25.554;2022-10-16T01:35:15;13.15;;;8.38;;
43487;SDS011;29078;41.932;25.554;2022-10-16T01:40:36;11.43;;;7.35;;
43487;SDS011;29078;41.932;25.554;2022-10-16T01:43:25;13.50;;;7.47;;
43487;SDS011;29078;41.932;25.554;2022-10-16T01:45:56;13.10;;;7.60;;
43487;SDS011;29078;41.932;25.554;2022-10-16T01:48:23;14.52;;;7.25;;
43487;SDS011;29078;41.932;25.554;2022-10-16T01:50:55;10.35;;;6.88;;
43487;SDS011;29078;41.932;25.554;2022-10-16T01:53:24;13.93;;;8.13;;
43487;SDS011;29078;41.932;25.554;2022-10-16T01:55:51;12.02;;;7.13;;
43487;SDS011;29078;41.932;25.554;2022-10-16T01:58:19;12.30;;;8.00;;
43487;SDS011;29078;41.932;25.554;2022-10-16T02:00:47;14.23;;;7.20;;
43487;SDS011;29078;41.932;25.554;2022-10-16T02:03:13;13.73;;;7.45;;
43487;SDS011;29078;41.932;25.554;2022-10-16T02:05:49;12.37;;;7.10;;
43487;SDS011;29078;41.932;25.554;2022-10-16T02:08:18;14.10;;;7.15;;
43487;SDS011;29078;41.932;25.554;2022-10-16T02:10:44;11.25;;;7.25;;
43487;SDS011;29078;41.932;25.554;2022-10-16T02:13:15;9.73;;;7.07;;
43487;SDS011;29078;41.932;25.554;2022-10-16T02:15:44;13.75;;;7.53;;
43487;SDS011;29078;41.932;25.554;2022-10-16T02:18:10;10.48;;;7.72;;
43487;SDS011;29078;41.932;25.554;2022-10-16T02:20:38;11.75;;;7.90;;
43487;SDS011;29078;41.932;25.554;2022-10-16T02:23:11;12.70;;;7.35;;
43487;SDS011;29078;41.932;25.554;2022-10-16T02:25:42;12.20;;;7.53;;
43487;SDS011;29078;41.932;25.554;2022-10-16T02:30:50;11.30;;;7.18;;
43487;SDS011;29078;41.932;25.554;2022-10-16T02:33:21;10.73;;;6.63;;
43487;SDS011;29078;41.932;25.554;2022-10-16T02:35:49;11.32;;;7.15;;
43487;SDS011;29078;41.932;25.554;2022-10-16T02:38:16;14.85;;;7.63;;
43487;SDS011;29078;41.932;25.554;2022-10-16T02:40:43;11.52;;;6.35;;
43487;SDS011;29078;41.932;25.554;2022-10-16T02:43:09;11.02;;;6.40;;
43487;SDS011;29078;41.932;25.554;2022-10-16T02:45:35;12.15;;;7.00;;
43487;SDS011;29078;41.932;25.554;2022-10-16T02:48:00;10.52;;;7.30;;
43487;SDS011;29078;41.932;25.554;2022-10-16T02:50:26;12.57;;;7.03;;
43487;SDS011;29078;41.932;25.554;2022-10-16T02:52:51;10.23;;;6.32;;
43487;SDS011;29078;41.932;25.554;2022-10-16T02:55:17;16.55;;;7.22;;
43487;SDS011;29078;41.932;25.554;2022-10-16T02:57:42;12.32;;;7.35;;
43487;SDS011;29078;41.932;25.554;2022-10-16T03:00:09;12.63;;;7.18;;
43487;SDS011;29078;41.932;25.554;2022-10-16T03:02:36;10.73;;;7.55;;
43487;SDS011;29078;41.932;25.554;2022-10-16T03:05:02;9.38;;;7.10;;
43487;SDS011;29078;41.932;25.554;2022-10-16T03:07:27;14.70;;;8.00;;
43487;SDS011;29078;41.932;25.554;2022-10-16T03:09:53;12.68;;;8.50;;
43487;SDS011;29078;41.932;25.554;2022-10-16T03:12:19;10.82;;;7.63;;
43487;SDS011;29078;41.932;25.554;2022-10-16T03:14:45;11.88;;;6.63;;
43487;SDS011;29078;41.932;25.554;2022-10-16T03:17:10;14.70;;;7.20;;
43487;SDS011;29078;41.932;25.554;2022-10-16T03:19:36;11.82;;;7.60;;
43487;SDS011;29078;41.932;25.554;2022-10-16T03:22:01;14.52;;;7.38;;
43487;SDS011;29078;41.932;25.554;2022-10-16T03:24:27;10.85;;;6.70;;
43487;SDS011;29078;41.932;25.554;2022-10-16T03:26:52;13.52;;;7.50;;
43487;SDS011;29078;41.932;25.554;2022-10-16T03:29:17;11.20;;;7.10;;
43487;SDS011;29078;41.932;25.554;2022-10-16T03:31:43;11.95;;;8.48;;
43487;SDS011;29078;41.932;25.554;2022-10-16T03:34:08;10.05;;;7.28;;
43487;SDS011;29078;41.932;25.554;2022-10-16T03:36:34;12.10;;;7.50;;
43487;SDS011;29078;41.932;25.554;2022-10-16T03:38:59;13.32;;;7.53;;
43487;SDS011;29078;41.932;25.554;2022-10-16T03:41:25;12.35;;;7.53;;
43487;SDS011;29078;41.932;25.554;2022-10-16T03:43:50;8.95;;;7.28;;
43487;SDS011;29078;41.932;25.554;2022-10-16T03:46:15;10.98;;;7.40;;
43487;SDS011;29078;41.932;25.554;2022-10-16T03:48:41;10.98;;;7.03;;
43487;SDS011;29078;41.932;25.554;2022-10-16T03:51:06;13.38;;;7.30;;
43487;SDS011;29078;41.932;25.554;2022-10-16T03:53:32;12.55;;;7.63;;
43487;SDS011;29078;41.932;25.554;2022-10-16T03:55:57;12.77;;;7.57;;
43487;SDS011;29078;41.932;25.554;2022-10-16T03:58:23;12.52;;;7.30;;
43487;SDS011;29078;41.932;25.554;2022-10-16T04:00:49;10.93;;;7.30;;
43487;SDS011;29078;41.932;25.554;2022-10-16T04:03:14;12.02;;;7.20;;
43487;SDS011;29078;41.932;25.554;2022-10-16T04:05:40;11.73;;;7.13;;
43487;SDS011;29078;41.932;25.554;2022-10-16T04:08:06;13.55;;;7.70;;
43487;SDS011;29078;41.932;25.554;2022-10-16T04:10:31;11.13;;;7.60;;
43487;SDS011;29078;41.932;25.554;2022-10-16T04:12:57;12.40;;;7.43;;
43487;SDS011;29078;41.932;25.554;2022-10-16T04:15:23;13.85;;;8.13;;
43487;SDS011;29078;41.932;25.554;2022-10-16T04:17:49;11.65;;;7.50;;
43487;SDS011;29078;41.932;25.554;2022-10-16T04:20:15;9.90;;;7.18;;
43487;SDS011;29078;41.932;25.554;2022-10-16T04:22:41;10.75;;;7.57;;
43487;SDS011;29078;41.932;25.554;2022-10-16T04:25:06;12.65;;;7.47;;
43487;SDS011;29078;41.932;25.554;2022-10-16T04:27:32;11.38;;;7.65;;
43487;SDS011;29078;41.932;25.554;2022-10-16T04:29:58;14.18;;;7.72;;
43487;SDS011;29078;41.932;25.554;2022-10-16T04:32:24;12.35;;;8.00;;
43487;SDS011;29078;41.932;25.554;2022-10-16T04:34:50;13.38;;;8.82;;
43487;SDS011;29078;41.932;25.554;2022-10-16T04:37:16;13.18;;;7.55;;
43487;SDS011;29078;41.932;25.554;2022-10-16T04:39:41;14.73;;;8.60;;
43487;SDS011;29078;41.932;25.554;2022-10-16T04:42:06;15.57;;;7.65;;
43487;SDS011;29078;41.932;25.554;2022-10-16T04:44:32;11.30;;;7.43;;
43487;SDS011;29078;41.932;25.554;2022-10-16T04:46:57;15.63;;;7.90;;
43487;SDS011;29078;41.932;25.554;2022-10-16T04:49:23;11.88;;;7.18;;
43487;SDS011;29078;41.932;25.554;2022-10-16T04:51:48;13.48;;;8.02;;
43487;SDS011;29078;41.932;25.554;2022-10-16T04:54:13;11.93;;;8.23;;
43487;SDS011;29078;41.932;25.554;2022-10-16T04:56:39;13.30;;;8.30;;
43487;SDS011;29078;41.932;25.554;2022-10-16T04:59:15;13.07;;;7.93;;
43487;SDS011;29078;41.932;25.554;2022-10-16T05:01:41;11.20;;;8.80;;
43487;SDS011;29078;41.932;25.554;2022-10-16T05:04:07;13.32;;;8.25;;
43487;SDS011;29078;41.932;25.554;2022-10-16T05:06:33;11.75;;;7.97;;
43487;SDS011;29078;41.932;25.554;2022-10-16T05:08:58;14.50;;;8.40;;
43487;SDS011;29078;41.932;25.554;2022-10-16T05:11:23;11.90;;;7.95;;
43487;SDS011;29078;41.932;25.554;2022-10-16T05:13:49;13.10;;;8.13;;
43487;SDS011;29078;41.932;25.554;2022-10-16T05:16:14;12.02;;;7.90;;
43487;SDS011;29078;41.932;25.554;2022-10-16T05:18:40;14.43;;;8.30;;
43487;SDS011;29078;41.932;25.554;2022-10-16T05:21:05;15.13;;;9.13;;
43487;SDS011;29078;41.932;25.554;2022-10-16T05:23:31;11.45;;;8.25;;
43487;SDS011;29078;41.932;25.554;2022-10-16T05:25:57;16.67;;;9.35;;
43487;SDS011;29078;41.932;25.554;2022-10-16T05:28:28;16.85;;;10.15;;
43487;SDS011;29078;41.932;25.554;2022-10-16T05:30:55;11.18;;;8.85;;
43487;SDS011;29078;41.932;25.554;2022-10-16T05:33:20;18.23;;;9.25;;
43487;SDS011;29078;41.932;25.554;2022-10-16T05:35:47;11.95;;;8.73;;
43487;SDS011;29078;41.932;25.554;2022-10-16T05:38:12;15.27;;;9.32;;
43487;SDS011;29078;41.932;25.554;2022-10-16T05:40:38;15.18;;;9.20;;
43487;SDS011;29078;41.932;25.554;2022-10-16T05:43:04;13.77;;;9.90;;
43487;SDS011;29078;41.932;25.554;2022-10-16T05:45:29;14.65;;;10.23;;
43487;SDS011;29078;41.932;25.554;2022-10-16T05:47:54;20.35;;;10.27;;
43487;SDS011;29078;41.932;25.554;2022-10-16T05:50:20;14.48;;;9.75;;
43487;SDS011;29078;41.932;25.554;2022-10-16T05:52:45;16.50;;;9.45;;
43487;SDS011;29078;41.932;25.554;2022-10-16T05:55:11;15.02;;;9.85;;
43487;SDS011;29078;41.932;25.554;2022-10-16T05:57:36;12.85;;;9.75;;
43487;SDS011;29078;41.932;25.554;2022-10-16T06:00:02;15.48;;;10.50;;
43487;SDS011;29078;41.932;25.554;2022-10-16T06:02:28;14.18;;;10.38;;
43487;SDS011;29078;41.932;25.554;2022-10-16T06:04:53;15.35;;;11.00;;
43487;SDS011;29078;41.932;25.554;2022-10-16T06:07:19;16.95;;;10.57;;
43487;SDS011;29078;41.932;25.554;2022-10-16T06:09:47;14.82;;;10.20;;
43487;SDS011;29078;41.932;25.554;2022-10-16T06:12:16;14.88;;;10.57;;
43487;SDS011;29078;41.932;25.554;2022-10-16T06:14:42;16.33;;;10.50;;
43487;SDS011;29078;41.932;25.554;2022-10-16T06:17:07;17.00;;;10.30;;
43487;SDS011;29078;41.932;25.554;2022-10-16T06:19:33;16.83;;;10.57;;
43487;SDS011;29078;41.932;25.554;2022-10-16T06:21:58;12.88;;;10.23;;
43487;SDS011;29078;41.932;25.554;2022-10-16T06:24:24;15.73;;;10.43;;
43487;SDS011;29078;41.932;25.554;2022-10-16T06:26:50;12.63;;;10.05;;
43487;SDS011;29078;41.932;25.554;2022-10-16T06:29:15;20.10;;;9.93;;
43487;SDS011;29078;41.932;25.554;2022-10-16T06:31:41;14.32;;;9.52;;
43487;SDS011;29078;41.932;25.554;2022-10-16T06:34:08;13.85;;;9.98;;
43487;SDS011;29078;41.932;25.554;2022-10-16T06:36:35;11.63;;;9.05;;
43487;SDS011;29078;41.932;25.554;2022-10-16T06:39:01;14.77;;;10.45;;
43487;SDS011;29078;41.932;25.554;2022-10-16T06:41:27;14.15;;;10.40;;
43487;SDS011;29078;41.932;25.554;2022-10-16T06:43:52;15.00;;;10.52;;
43487;SDS011;29078;41.932;25.554;2022-10-16T06:46:19;16.77;;;9.73;;
43487;SDS011;29078;41.932;25.554;2022-10-16T06:48:46;15.70;;;9.05;;
43487;SDS011;29078;41.932;25.554;2022-10-16T06:51:13;14.60;;;9.00;;
43487;SDS011;29078;41.932;25.554;2022-10-16T06:53:46;8.73;;;7.82;;
43487;SDS011;29078;41.932;25.554;2022-10-16T06:56:18;9.23;;;8.05;;
43487;SDS011;29078;41.932;25.554;2022-10-16T06:58:47;8.88;;;6.90;;
43487;SDS011;29078;41.932;25.554;2022-10-16T07:01:14;9.40;;;7.13;;
43487;SDS011;29078;41.932;25.554;2022-10-16T07:03:41;7.95;;;6.63;;
43487;SDS011;29078;41.932;25.554;2022-10-16T07:06:08;7.80;;;6.30;;
43487;SDS011;29078;41.932;25.554;2022-10-16T07:08:35;9.02;;;6.47;;
43487;SDS011;29078;41.932;25.554;2022-10-16T07:11:06;6.90;;;5.25;;
43487;SDS011;29078;41.932;25.554;2022-10-16T07:13:33;5.75;;;4.97;;
43487;SDS011;29078;41.932;25.554;2022-10-16T07:16:07;9.40;;;5.55;;
43487;SDS011;29078;41.932;25.554;2022-10-16T07:18:32;8.43;;;5.45;;
43487;SDS011;29078;41.932;25.554;2022-10-16T07:21:08;6.95;;;5.63;;
43487;SDS011;29078;41.932;25.554;2022-10-16T07:23:35;7.10;;;5.82;;
43487;SDS011;29078;41.932;25.554;2022-10-16T07:26:00;6.55;;;5.40;;
43487;SDS011;29078;41.932;25.554;2022-10-16T07:28:26;7.13;;;4.90;;
43487;SDS011;29078;41.932;25.554;2022-10-16T07:30:52;7.47;;;5.10;;
43487;SDS011;29078;41.932;25.554;2022-10-16T07:33:18;8.00;;;4.88;;
43487;SDS011;29078;41.932;25.554;2022-10-16T07:35:50;6.63;;;5.00;;
43487;SDS011;29078;41.932;25.554;2022-10-16T07:38:16;7.55;;;5.43;;
43487;SDS011;29078;41.932;25.554;2022-10-16T07:40:42;9.15;;;5.40;;
43487;SDS011;29078;41.932;25.554;2022-10-16T07:43:08;6.28;;;4.65;;
43487;SDS011;29078;41.932;25.554;2022-10-16T07:45:33;9.43;;;5.60;;
43487;SDS011;29078;41.932;25.554;2022-10-16T07:47:59;7.75;;;4.70;;
43487;SDS011;29078;41.932;25.554;2022-10-16T07:50:24;6.35;;;5.07;;
43487;SDS011;29078;41.932;25.554;2022-10-16T07:52:49;7.97;;;4.65;;
43487;SDS011;29078;41.932;25.554;2022-10-16T07:55:15;7.20;;;5.07;;
43487;SDS011;29078;41.932;25.554;2022-10-16T07:57:40;20.25;;;5.20;;
43487;SDS011;29078;41.932;25.554;2022-10-16T08:00:06;7.72;;;4.65;;
43487;SDS011;29078;41.932;25.554;2022-10-16T08:02:32;8.15;;;5.00;;
43487;SDS011;29078;41.932;25.554;2022-10-16T08:04:57;7.57;;;5.38;;
43487;SDS011;29078;41.932;25.554;2022-10-16T08:07:23;7.15;;;4.88;;
43487;SDS011;29078;41.932;25.554;2022-10-16T08:09:49;9.50;;;5.13;;
43487;SDS011;29078;41.932;25.554;2022-10-16T08:12:16;6.38;;;4.40;;
43487;SDS011;29078;41.932;25.554;2022-10-16T08:14:42;6.15;;;5.55;;
43487;SDS011;29078;41.932;25.554;2022-10-16T08:17:07;6.13;;;4.55;;
43487;SDS011;29078;41.932;25.554;2022-10-16T08:19:32;12.75;;;5.20;;
43487;SDS011;29078;41.932;25.554;2022-10-16T08:21:59;5.93;;;4.70;;
43487;SDS011;29078;41.932;25.554;2022-10-16T08:24:25;6.63;;;4.75;;
43487;SDS011;29078;41.932;25.554;2022-10-16T08:26:53;6.43;;;5.10;;
43487;SDS011;29078;41.932;25.554;2022-10-16T08:29:19;6.80;;;5.15;;
43487;SDS011;29078;41.932;25.554;2022-10-16T08:31:44;8.30;;;7.22;;
43487;SDS011;29078;41.932;25.554;2022-10-16T08:34:10;9.95;;;7.15;;
43487;SDS011;29078;41.932;25.554;2022-10-16T08:36:35;8.75;;;7.05;;
43487;SDS011;29078;41.932;25.554;2022-10-16T08:39:00;10.82;;;7.82;;
43487;SDS011;29078;41.932;25.554;2022-10-16T08:44:04;8.95;;;6.60;;
43487;SDS011;29078;41.932;25.554;2022-10-16T08:49:11;9.68;;;8.68;;
43487;SDS011;29078;41.932;25.554;2022-10-16T08:51:40;10.38;;;8.93;;
43487;SDS011;29078;41.932;25.554;2022-10-16T08:56:56;11.80;;;9.85;;
43487;SDS011;29078;41.932;25.554;2022-10-16T08:59:26;12.02;;;10.60;;
43487;SDS011;29078;41.932;25.554;2022-10-16T09:01:51;11.45;;;10.35;;
43487;SDS011;29078;41.932;25.554;2022-10-16T09:07:04;12.00;;;9.57;;
43487;SDS011;29078;41.932;25.554;2022-10-16T09:12:04;10.90;;;9.23;;
43487;SDS011;29078;41.932;25.554;2022-10-16T09:17:22;12.57;;;9.95;;
43487;SDS011;29078;41.932;25.554;2022-10-16T09:22:27;13.00;;;8.88;;
43487;SDS011;29078;41.932;25.554;2022-10-16T09:24:57;11.02;;;9.93;;
43487;SDS011;29078;41.932;25.554;2022-10-16T09:27:25;12.38;;;10.32;;
43487;SDS011;29078;41.932;25.554;2022-10-16T09:29:51;12.88;;;9.55;;
43487;SDS011;29078;41.932;25.554;2022-10-16T09:32:20;11.95;;;9.50;;
43487;SDS011;29078;41.932;25.554;2022-10-16T09:34:48;12.93;;;9.63;;
43487;SDS011;29078;41.932;25.554;2022-10-16T09:37:20;12.55;;;11.15;;
43487;SDS011;29078;41.932;25.554;2022-10-16T09:39:48;16.25;;;12.70;;
43487;SDS011;29078;41.932;25.554;2022-10-16T09:42:19;11.10;;;9.88;;
43487;SDS011;29078;41.932;25.554;2022-10-16T09:44:52;11.85;;;10.65;;
43487;SDS011;29078;41.932;25.554;2022-10-16T09:47:19;12.65;;;10.27;;
43487;SDS011;29078;41.932;25.554;2022-10-16T09:50:19;13.73;;;10.57;;
43487;SDS011;29078;41.932;25.554;2022-10-16T09:52:50;12.38;;;10.55;;
43487;SDS011;29078;41.932;25.554;2022-10-16T09:55:16;13.35;;;10.38;;
43487;SDS011;29078;41.932;25.554;2022-10-16T09:57:52;13.18;;;11.40;;
43487;SDS011;29078;41.932;25.554;2022-10-16T10:00:19;13.35;;;10.80;;
43487;SDS011;29078;41.932;25.554;2022-10-16T10:02:45;14.02;;;10.48;;
43487;SDS011;29078;41.932;25.554;2022-10-16T10:05:21;13.82;;;11.80;;
43487;SDS011;29078;41.932;25.554;2022-10-16T10:08:01;12.75;;;10.95;;
43487;SDS011;29078;41.932;25.554;2022-10-16T10:10:31;13.85;;;10.90;;
43487;SDS011;29078;41.932;25.554;2022-10-16T10:12:59;12.93;;;10.98;;
43487;SDS011;29078;41.932;25.554;2022-10-16T10:15:25;12.60;;;10.95;;
43487;SDS011;29078;41.932;25.554;2022-10-16T10:17:58;12.13;;;10.30;;
43487;SDS011;29078;41.932;25.554;2022-10-16T10:20:31;10.90;;;9.80;;
43487;SDS011;29078;41.932;25.554;2022-10-16T10:22:59;11.95;;;9.70;;
43487;SDS011;29078;41.932;25.554;2022-10-16T10:25:38;12.05;;;10.35;;
43487;SDS011;29078;41.932;25.554;2022-10-16T10:31:01;11.32;;;9.88;;
43487;SDS011;29078;41.932;25.554;2022-10-16T10:33:35;11.07;;;8.95;;
43487;SDS011;29078;41.932;25.554;2022-10-16T10:38:59;9.68;;;8.63;;
43487;SDS011;29078;41.932;25.554;2022-10-16T10:46:50;11.93;;;10.05;;
43487;SDS011;29078;41.932;25.554;2022-10-16T11:07:57;8.50;;;7.60;;
43487;SDS011;29078;41.932;25.554;2022-10-16T11:10:30;8.50;;;7.60;;
43487;SDS011;29078;41.932;25.554;2022-10-16T11:13:38;9.13;;;7.93;;
43487;SDS011;29078;41.932;25.554;2022-10-16T11:16:16;11.40;;;8.65;;
43487;SDS011;29078;41.932;25.554;2022-10-16T11:18:52;11.07;;;8.60;;
43487;SDS011;29078;41.932;25.554;2022-10-16T11:21:24;9.65;;;7.80;;
43487;SDS011;29078;41.932;25.554;2022-10-16T11:26:45;8.90;;;7.28;;
43487;SDS011;29078;41.932;25.554;2022-10-16T11:29:15;8.23;;;6.90;;
43487;SDS011;29078;41.932;25.554;2022-10-16T11:31:52;8.43;;;6.80;;
43487;SDS011;29078;41.932;25.554;2022-10-16T11:39:49;9.40;;;8.35;;
43487;SDS011;29078;41.932;25.554;2022-10-16T11:42:29;10.32;;;7.38;;
43487;SDS011;29078;41.932;25.554;2022-10-16T11:45:03;8.00;;;6.82;;
43487;SDS011;29078;41.932;25.554;2022-10-16T11:50:26;7.80;;;6.38;;
43487;SDS011;29078;41.932;25.554;2022-10-16T11:55:42;7.75;;;6.22;;
43487;SDS011;29078;41.932;25.554;2022-10-16T12:03:22;7.68;;;5.85;;
43487;SDS011;29078;41.932;25.554;2022-10-16T12:08:32;5.47;;;4.70;;
43487;SDS011;29078;41.932;25.554;2022-10-16T12:11:06;6.63;;;4.90;;
43487;SDS011;29078;41.932;25.554;2022-10-16T12:14:03;6.30;;;4.75;;
43487;SDS011;29078;41.932;25.554;2022-10-16T12:16:29;8.00;;;4.97;;
43487;SDS011;29078;41.932;25.554;2022-10-16T12:21:37;6.80;;;4.90;;
43487;SDS011;29078;41.932;25.554;2022-10-16T12:24:03;9.15;;;4.55;;
43487;SDS011;29078;41.932;25.554;2022-10-16T12:26:31;5.72;;;4.20;;
43487;SDS011;29078;41.932;25.554;2022-10-16T12:31:57;6.18;;;4.65;;
43487;SDS011;29078;41.932;25.554;2022-10-16T12:39:58;7.22;;;4.70;;
43487;SDS011;29078;41.932;25.554;2022-10-16T12:44:54;8.43;;;5.45;;
43487;SDS011;29078;41.932;25.554;2022-10-16T12:47:47;6.95;;;5.32;;
43487;SDS011;29078;41.932;25.554;2022-10-16T12:50:27;6.28;;;4.47;;
43487;SDS011;29078;41.932;25.554;2022-10-16T12:52:56;5.50;;;4.65;;
43487;SDS011;29078;41.932;25.554;2022-10-16T12:55:23;7.25;;;5.38;;
43487;SDS011;29078;41.932;25.554;2022-10-16T13:00:44;6.93;;;5.13;;
43487;SDS011;29078;41.932;25.554;2022-10-16T13:11:30;7.07;;;5.18;;
43487;SDS011;29078;41.932;25.554;2022-10-16T13:29:49;5.75;;;4.82;;
43487;SDS011;29078;41.932;25.554;2022-10-16T13:32:18;6.72;;;4.85;;
43487;SDS011;29078;41.932;25.554;2022-10-16T13:34:45;6.15;;;4.85;;
43487;SDS011;29078;41.932;25.554;2022-10-16T13:37:24;7.68;;;4.82;;
43487;SDS011;29078;41.932;25.554;2022-10-16T13:39:50;5.57;;;4.82;;
43487;SDS011;29078;41.932;25.554;2022-10-16T13:42:23;6.03;;;4.65;;
43487;SDS011;29078;41.932;25.554;2022-10-16T13:44:53;6.78;;;4.88;;
43487;SDS011;29078;41.932;25.554;2022-10-16T13:49:47;10.52;;;4.95;;
43487;SDS011;29078;41.932;25.554;2022-10-16T13:52:24;8.23;;;5.03;;
43487;SDS011;29078;41.932;25.554;2022-10-16T13:54:49;5.65;;;4.00;;
43487;SDS011;29078;41.932;25.554;2022-10-16T13:57:16;4.88;;;3.67;;
43487;SDS011;29078;41.932;25.554;2022-10-16T13:59:42;6.40;;;4.15;;
43487;SDS011;29078;41.932;25.554;2022-10-16T14:02:14;8.98;;;4.35;;
43487;SDS011;29078;41.932;25.554;2022-10-16T14:04:46;4.68;;;3.30;;
43487;SDS011;29078;41.932;25.554;2022-10-16T14:07:13;6.22;;;3.05;;
43487;SDS011;29078;41.932;25.554;2022-10-16T14:09:47;6.30;;;3.22;;
43487;SDS011;29078;41.932;25.554;2022-10-16T14:12:14;6.72;;;3.10;;
43487;SDS011;29078;41.932;25.554;2022-10-16T14:14:41;3.80;;;3.00;;
43487;SDS011;29078;41.932;25.554;2022-10-16T14:17:14;5.35;;;3.20;;
43487;SDS011;29078;41.932;25.554;2022-10-16T14:19:40;7.22;;;3.25;;
43487;SDS011;29078;41.932;25.554;2022-10-16T14:22:44;5.50;;;3.45;;
43487;SDS011;29078;41.932;25.554;2022-10-16T14:30:25;6.75;;;3.97;;
43487;SDS011;29078;41.932;25.554;2022-10-16T14:32:56;6.97;;;4.35;;
43487;SDS011;29078;41.932;25.554;2022-10-16T14:35:30;5.82;;;3.83;;
43487;SDS011;29078;41.932;25.554;2022-10-16T14:38:04;10.07;;;7.25;;
43487;SDS011;29078;41.932;25.554;2022-10-16T14:40:32;6.57;;;4.85;;
43487;SDS011;29078;41.932;25.554;2022-10-16T14:42:59;8.55;;;4.72;;
43487;SDS011;29078;41.932;25.554;2022-10-16T14:45:27;6.95;;;3.97;;
43487;SDS011;29078;41.932;25.554;2022-10-16T14:47:56;7.80;;;4.38;;
43487;SDS011;29078;41.932;25.554;2022-10-16T14:50:24;5.82;;;4.75;;
43487;SDS011;29078;41.932;25.554;2022-10-16T14:52:49;8.57;;;4.45;;
43487;SDS011;29078;41.932;25.554;2022-10-16T14:55:15;6.55;;;4.53;;
43487;SDS011;29078;41.932;25.554;2022-10-16T14:57:42;7.93;;;5.00;;
43487;SDS011;29078;41.932;25.554;2022-10-16T15:00:10;9.52;;;5.15;;
43487;SDS011;29078;41.932;25.554;2022-10-16T15:02:48;6.95;;;4.68;;
43487;SDS011;29078;41.932;25.554;2022-10-16T15:07:45;9.05;;;4.93;;
43487;SDS011;29078;41.932;25.554;2022-10-16T15:10:11;6.00;;;4.20;;
43487;SDS011;29078;41.932;25.554;2022-10-16T15:12:38;8.40;;;5.22;;
43487;SDS011;29078;41.932;25.554;2022-10-16T15:17:47;9.70;;;5.30;;
43487;SDS011;29078;41.932;25.554;2022-10-16T15:20:14;9.68;;;6.22;;
43487;SDS011;29078;41.932;25.554;2022-10-16T15:22:39;12.48;;;6.13;;
43487;SDS011;29078;41.932;25.554;2022-10-16T15:27:57;10.23;;;6.65;;
43487;SDS011;29078;41.932;25.554;2022-10-16T15:30:24;11.32;;;7.50;;
43487;SDS011;29078;41.932;25.554;2022-10-16T15:32:50;14.05;;;7.50;;
43487;SDS011;29078;41.932;25.554;2022-10-16T15:35:15;14.50;;;8.05;;
43487;SDS011;29078;41.932;25.554;2022-10-16T15:37:41;13.90;;;9.23;;
43487;SDS011;29078;41.932;25.554;2022-10-16T15:40:06;13.88;;;7.88;;
43487;SDS011;29078;41.932;25.554;2022-10-16T15:42:33;12.77;;;8.82;;
43487;SDS011;29078;41.932;25.554;2022-10-16T15:44:58;13.93;;;8.60;;
43487;SDS011;29078;41.932;25.554;2022-10-16T15:47:24;17.08;;;9.48;;
43487;SDS011;29078;41.932;25.554;2022-10-16T15:49:49;14.40;;;8.68;;
43487;SDS011;29078;41.932;25.554;2022-10-16T15:52:14;12.23;;;8.38;;
43487;SDS011;29078;41.932;25.554;2022-10-16T15:54:40;16.13;;;8.65;;
43487;SDS011;29078;41.932;25.554;2022-10-16T15:57:06;16.52;;;9.07;;
43487;SDS011;29078;41.932;25.554;2022-10-16T15:59:31;16.38;;;9.05;;
43487;SDS011;29078;41.932;25.554;2022-10-16T16:01:56;17.98;;;10.32;;
43487;SDS011;29078;41.932;25.554;2022-10-16T16:04:22;11.45;;;8.93;;
43487;SDS011;29078;41.932;25.554;2022-10-16T16:06:48;19.73;;;10.13;;
43487;SDS011;29078;41.932;25.554;2022-10-16T16:09:13;16.58;;;10.18;;
43487;SDS011;29078;41.932;25.554;2022-10-16T16:11:39;21.58;;;12.82;;
43487;SDS011;29078;41.932;25.554;2022-10-16T16:14:05;18.75;;;12.35;;
43487;SDS011;29078;41.932;25.554;2022-10-16T16:16:31;21.48;;;14.43;;
43487;SDS011;29078;41.932;25.554;2022-10-16T16:19:02;21.30;;;14.65;;
43487;SDS011;29078;41.932;25.554;2022-10-16T16:21:27;30.40;;;15.27;;
43487;SDS011;29078;41.932;25.554;2022-10-16T16:23:53;22.10;;;15.05;;
43487;SDS011;29078;41.932;25.554;2022-10-16T16:26:25;19.60;;;12.15;;
43487;SDS011;29078;41.932;25.554;2022-10-16T16:28:51;18.73;;;11.13;;
43487;SDS011;29078;41.932;25.554;2022-10-16T16:31:17;22.02;;;11.35;;
43487;SDS011;29078;41.932;25.554;2022-10-16T16:33:43;16.83;;;10.63;;
43487;SDS011;29078;41.932;25.554;2022-10-16T16:36:08;15.75;;;9.90;;
43487;SDS011;29078;41.932;25.554;2022-10-16T16:38:34;31.60;;;15.75;;
43487;SDS011;29078;41.932;25.554;2022-10-16T16:41:00;25.63;;;13.35;;
43487;SDS011;29078;41.932;25.554;2022-10-16T16:43:36;21.48;;;12.52;;
43487;SDS011;29078;41.932;25.554;2022-10-16T16:46:01;23.90;;;11.70;;
43487;SDS011;29078;41.932;25.554;2022-10-16T16:48:27;21.42;;;11.85;;
43487;SDS011;29078;41.932;25.554;2022-10-16T16:50:52;19.45;;;12.15;;
43487;SDS011;29078;41.932;25.554;2022-10-16T16:53:17;18.17;;;11.38;;
43487;SDS011;29078;41.932;25.554;2022-10-16T16:55:43;21.83;;;11.73;;